White Deer, TX (79097)

11:46 PM CDT on August 01, 2014 (GMT -0500)
WT_Meso Pampa 2E (MPAMT2) Elev 3215 ft | 35.54 °N, 100.93 °W | Change Station

Current weather conditions updated 51 minutes ago

Clear
Clear
68 °F
Feels Like 68 °F
N
5
Wind Variable Wind from SW
Gusts 7.0 mph

Tomorrow is forecast to be Warmer than today.

Today
High -- | Low -- °F
--% Chance of Precip.
Yesterday
High -- | Low -- °F
Precip. -- in
6:53 AM 8:48 PM
Waxing Crescent, 32% visible
Pressure 30.19 in
Visibility 10.0 miles
Clouds Clear
Dew Point 60 °F
Humidity 77%
Rainfall -999.00 in
Snow Depth Not available.
UV 0 out of 12
Pollen 4.20 out of 12
Air Quality Not available.
Flu Activity Not available.
METAR KPPA 020435Z AUTO 21006KT 10SM CLR 18/14 A3019 RMK AO2 T01820143

More Conditions Fewer Conditions

Pressure 30.19 in
Visibility 10.0 miles
Clouds Clear
Dew Point 60 °F
Humidity 77%
Rainfall -999.00 in
Snow Depth Not available.
UV 0 out of 12
Pollen 4.20 out of 12
Air Quality Not available.
Flu Activity Not available.
METAR KPPA 020435Z AUTO 21006KT 10SM CLR 18/14 A3019 RMK AO2 T01820143

More Conditions Fewer Conditions

10-Day Weather Forecast

Almanac

Astronomy

Aug. 01, 2014 Rise Set
Actual Time 6:53 AM CDT 8:48 PM CDT
Civil Twilight 6:25 AM CDT 9:16 PM CDT
Nautical Twilight 5:51 AM CDT 9:50 PM CDT
Astronomical Twilight 5:14 AM CDT 10:26 PM CDT
Moon 12:05 PM CDT (8/1) 11:48 PM CDT (8/1)
Length of Visible Light 14h 50m
Length of Day
13h 55m
Tomorrow will be 1m 41s shorter.
Waxing Crescent, 32% of the Moon is Illuminated
Aug 2
Waxing Crescent
Aug 3
First Quarter
Aug 10
Full
Aug 17
Last Quarter
Aug 25
New

Yesterday's Extremes

State Highs State Lows

Community

WunderPhotos

Upload Photos

1,739,823 photos uploaded!

Nearby

Snow Depth

Station Depth Elevation
No new snow has been reported.

Earthquake Activity

City Distance Mag. Time & Date
No recent earthquake activity has been reported nearby.
Minimum magnitude displayed is 2.5.

Coastal Water Temperatures

Place Temperature
No Stations Reporting

Nearby Weather Stations

Station Location Temp. Dew Point Humidity Wind Precip. Elev Updated Type
WT_Meso Pampa 2E, Pampa, TX 68 °F 60 °F 77% SW  at  5 mph 0.00 in / hr 3215 ft 10:55 PM CDT MADIS
HADS LEFORS WEATHER STATION TX, Lefors, TX 68 °F 62 °F 81% NE  at  1 mph 0.00 in / hr 2798 ft 11:00 PM CDT MADIS
Borger Country Club, Borger, TX 69.1 °F 58 °F 68% South  at  0.0 mph 0.00 in / hr 3239 ft 11:46 PM CDT Rapid Fire

Show More Stations Show Fewer Stations